Terminal Aerodrome Forecast
Issued by NWS

Home | Current Version | Previous Version | Text Only | Print | Product List | Glossary On
Versions: 1 2 3 4 5 6 7 8 9 10 11 12 13
000
FTUS44 KLIX 022340
TAFHDC
TAF
KHDC 022340Z 0300/0324 09005KT P6SM OVC110
     FM030600 07006KT P6SM VCSH OVC060
     FM030900 07008KT P6SM -RA OVC050 PROB30 0309/0315 4SM RA OVC025
     FM031700 09012KT P6SM -RA OVC050 PROB30 0317/0323 4SM RA
      OVC025=

USA.gov is the U.S. government's official web portal to all federal, state and local government web resources and services.